sensor_id;sensor_type;location;lat;lon;timestamp;pressure;altitude;pressure_sealevel;temperature;humidity
6032;BME280;3044;43.232;27.972;2023-04-16T00:00:00;44180.88;;;-143.84;84.79
6032;BME280;3044;43.232;27.972;2023-04-16T00:02:30;44156.13;;;-143.84;84.86
6032;BME280;3044;43.232;27.972;2023-04-16T00:04:58;44184.69;;;-143.84;84.61
6032;BME280;3044;43.232;27.972;2023-04-16T00:07:25;44241.81;;;-143.84;84.60
6032;BME280;3044;43.232;27.972;2023-04-16T00:09:52;44167.56;;;-143.84;84.87
6032;BME280;3044;43.232;27.972;2023-04-16T00:12:19;44161.84;;;-143.84;84.97
6032;BME280;3044;43.232;27.972;2023-04-16T00:14:46;44040.00;;;-143.84;85.20
6032;BME280;3044;43.232;27.972;2023-04-16T00:17:13;44059.03;;;-143.84;85.38
6032;BME280;3044;43.232;27.972;2023-04-16T00:19:42;44015.25;;;-143.84;85.63
6032;BME280;3044;43.232;27.972;2023-04-16T00:22:09;44036.22;;;-143.84;85.60
6032;BME280;3044;43.232;27.972;2023-04-16T00:24:36;43988.63;;;-143.84;85.79
6032;BME280;3044;43.232;27.972;2023-04-16T00:27:03;44093.31;;;-143.84;85.40
6032;BME280;3044;43.232;27.972;2023-04-16T00:29:30;43988.63;;;-143.84;86.03
6032;BME280;3044;43.232;27.972;2023-04-16T00:31:59;43944.84;;;-143.84;86.21
6032;BME280;3044;43.232;27.972;2023-04-16T00:34:26;43914.38;;;-143.84;86.29
6032;BME280;3044;43.232;27.972;2023-04-16T00:36:55;43922.00;;;-143.84;86.24
6032;BME280;3044;43.232;27.972;2023-04-16T00:39:22;43942.94;;;-143.84;86.03
6032;BME280;3044;43.232;27.972;2023-04-16T00:41:49;44028.59;;;-143.84;85.79
6032;BME280;3044;43.232;27.972;2023-04-16T00:44:16;44062.84;;;-143.84;85.46
6032;BME280;3044;43.232;27.972;2023-04-16T00:46:44;44038.09;;;-143.84;85.48
6032;BME280;3044;43.232;27.972;2023-04-16T00:49:11;44089.50;;;-143.84;85.47
6032;BME280;3044;43.232;27.972;2023-04-16T00:51:38;44184.69;;;-143.84;84.92
6032;BME280;3044;43.232;27.972;2023-04-16T00:54:07;44150.41;;;-143.84;85.00
6032;BME280;3044;43.232;27.972;2023-04-16T00:56:34;44169.47;;;-143.84;85.07
6032;BME280;3044;43.232;27.972;2023-04-16T00:59:02;44177.06;;;-143.84;85.00
6032;BME280;3044;43.232;27.972;2023-04-16T01:01:29;44293.19;;;-143.84;84.68
6032;BME280;3044;43.232;27.972;2023-04-16T01:03:56;44262.75;;;-143.84;84.63
6032;BME280;3044;43.232;27.972;2023-04-16T01:06:23;44367.44;;;-143.84;84.23
6032;BME280;3044;43.232;27.972;2023-04-16T01:08:51;44397.91;;;-143.84;84.15
6032;BME280;3044;43.232;27.972;2023-04-16T01:11:19;44456.94;;;-143.84;84.34
6032;BME280;3044;43.232;27.972;2023-04-16T01:13:46;44428.38;;;-143.84;84.25
6032;BME280;3044;43.232;27.972;2023-04-16T01:16:14;44344.59;;;-143.84;84.44
6032;BME280;3044;43.232;27.972;2023-04-16T01:18:41;44285.59;;;-143.84;84.54
6032;BME280;3044;43.232;27.972;2023-04-16T01:21:09;44239.91;;;-143.84;84.80
6032;BME280;3044;43.232;27.972;2023-04-16T01:23:36;44180.88;;;-143.84;84.95
6032;BME280;3044;43.232;27.972;2023-04-16T01:26:03;44209.44;;;-143.84;84.75
6032;BME280;3044;43.232;27.972;2023-04-16T01:28:31;44238.00;;;-143.84;84.83
6032;BME280;3044;43.232;27.972;2023-04-16T01:30:58;44272.25;;;-143.84;84.60
6032;BME280;3044;43.232;27.972;2023-04-16T01:33:25;44314.13;;;-143.84;84.55
6032;BME280;3044;43.232;27.972;2023-04-16T01:35:52;44289.41;;;-143.84;84.52
6032;BME280;3044;43.232;27.972;2023-04-16T01:38:20;44249.41;;;-143.84;84.65
6032;BME280;3044;43.232;27.972;2023-04-16T01:40:48;44258.94;;;-143.84;84.80
6032;BME280;3044;43.232;27.972;2023-04-16T01:43:15;44226.56;;;-143.84;84.83
6032;BME280;3044;43.232;27.972;2023-04-16T01:45:42;44376.97;;;-143.84;84.46
6032;BME280;3044;43.232;27.972;2023-04-16T01:48:09;44323.66;;;-143.84;84.44
6032;BME280;3044;43.232;27.972;2023-04-16T01:50:36;44277.97;;;-143.84;84.88
6032;BME280;3044;43.232;27.972;2023-04-16T01:53:03;44325.56;;;-143.84;84.53
6032;BME280;3044;43.232;27.972;2023-04-16T01:55:32;44394.09;;;-143.84;84.19
6032;BME280;3044;43.232;27.972;2023-04-16T01:58:00;44500.72;;;-143.84;83.75
6032;BME280;3044;43.232;27.972;2023-04-16T02:00:27;44542.59;;;-143.84;83.69
6032;BME280;3044;43.232;27.972;2023-04-16T02:02:54;44527.38;;;-143.84;83.98
6032;BME280;3044;43.232;27.972;2023-04-16T02:05:21;44464.53;;;-143.84;84.18
6032;BME280;3044;43.232;27.972;2023-04-16T02:07:48;44437.88;;;-143.84;84.22
6032;BME280;3044;43.232;27.972;2023-04-16T02:10:15;44416.94;;;-143.84;84.06
6032;BME280;3044;43.232;27.972;2023-04-16T02:12:44;44449.31;;;-143.84;84.10
6032;BME280;3044;43.232;27.972;2023-04-16T02:15:12;44500.72;;;-143.84;83.87
6032;BME280;3044;43.232;27.972;2023-04-16T02:17:40;44542.59;;;-143.84;83.50
6032;BME280;3044;43.232;27.972;2023-04-16T02:20:08;44550.22;;;-143.84;83.72
6032;BME280;3044;43.232;27.972;2023-04-16T02:22:35;44512.13;;;-143.84;84.04
6032;BME280;3044;43.232;27.972;2023-04-16T02:25:03;44455.03;;;-143.84;84.14
6032;BME280;3044;43.232;27.972;2023-04-16T02:27:30;44287.50;;;-143.84;84.66
6032;BME280;3044;43.232;27.972;2023-04-16T02:29:59;44177.06;;;-143.84;85.00
6032;BME280;3044;43.232;27.972;2023-04-16T02:32:27;44236.09;;;-143.84;84.80
6032;BME280;3044;43.232;27.972;2023-04-16T02:34:54;44258.94;;;-143.84;84.80
6032;BME280;3044;43.232;27.972;2023-04-16T02:37:21;44226.56;;;-143.84;84.80
6032;BME280;3044;43.232;27.972;2023-04-16T02:39:49;44213.25;;;-143.84;84.80
6032;BME280;3044;43.232;27.972;2023-04-16T02:42:17;44146.63;;;-143.84;85.06
6032;BME280;3044;43.232;27.972;2023-04-16T02:44:45;44184.69;;;-143.84;84.83
6032;BME280;3044;43.232;27.972;2023-04-16T02:47:13;44316.03;;;-143.84;84.80
6032;BME280;3044;43.232;27.972;2023-04-16T02:49:40;44331.28;;;-143.84;84.54
6032;BME280;3044;43.232;27.972;2023-04-16T02:52:07;44316.03;;;-143.84;84.45
6032;BME280;3044;43.232;27.972;2023-04-16T02:54:35;44268.44;;;-143.84;84.67
6032;BME280;3044;43.232;27.972;2023-04-16T02:57:02;44344.59;;;-143.84;84.58
6032;BME280;3044;43.232;27.972;2023-04-16T02:59:30;44403.63;;;-143.84;84.17
6032;BME280;3044;43.232;27.972;2023-04-16T03:01:57;44517.84;;;-143.84;83.85
6032;BME280;3044;43.232;27.972;2023-04-16T03:04:26;44540.69;;;-143.84;83.78
6032;BME280;3044;43.232;27.972;2023-04-16T03:06:53;44523.56;;;-143.84;83.72
6032;BME280;3044;43.232;27.972;2023-04-16T03:09:20;44517.84;;;-143.84;83.87
6032;BME280;3044;43.232;27.972;2023-04-16T03:11:47;44557.84;;;-143.84;83.62
6032;BME280;3044;43.232;27.972;2023-04-16T03:14:14;44603.53;;;-143.84;83.50
6032;BME280;3044;43.232;27.972;2023-04-16T03:16:41;44664.44;;;-143.84;83.24
6032;BME280;3044;43.232;27.972;2023-04-16T03:19:08;44742.50;;;-143.84;82.84
6032;BME280;3044;43.232;27.972;2023-04-16T03:21:37;44700.63;;;-143.84;83.08
6032;BME280;3044;43.232;27.972;2023-04-16T03:24:04;44630.19;;;-143.84;83.37
6032;BME280;3044;43.232;27.972;2023-04-16T03:26:31;44614.94;;;-143.84;83.53
6032;BME280;3044;43.232;27.972;2023-04-16T03:28:58;44645.41;;;-143.84;83.38
6032;BME280;3044;43.232;27.972;2023-04-16T03:31:26;44618.75;;;-143.84;83.47
6032;BME280;3044;43.232;27.972;2023-04-16T03:33:53;44645.41;;;-143.84;83.25
6032;BME280;3044;43.232;27.972;2023-04-16T03:36:21;44620.66;;;-143.84;83.40
6032;BME280;3044;43.232;27.972;2023-04-16T03:38:49;44594.00;;;-143.84;83.69
6032;BME280;3044;43.232;27.972;2023-04-16T03:41:17;44523.56;;;-143.84;83.84
6032;BME280;3044;43.232;27.972;2023-04-16T03:43:44;44489.28;;;-143.84;83.87
6032;BME280;3044;43.232;27.972;2023-04-16T03:46:11;44483.56;;;-143.84;84.03
6032;BME280;3044;43.232;27.972;2023-04-16T03:48:38;44508.31;;;-143.84;83.96
6032;BME280;3044;43.232;27.972;2023-04-16T03:51:05;44546.41;;;-143.84;83.69
6032;BME280;3044;43.232;27.972;2023-04-16T03:53:32;44571.16;;;-143.84;83.61
6032;BME280;3044;43.232;27.972;2023-04-16T03:56:00;44540.69;;;-143.84;83.60
6032;BME280;3044;43.232;27.972;2023-04-16T03:58:28;44658.75;;;-143.84;83.16
6032;BME280;3044;43.232;27.972;2023-04-16T04:00:55;44653.03;;;-143.84;83.20
6032;BME280;3044;43.232;27.972;2023-04-16T04:03:22;44634.00;;;-143.84;83.37
6032;BME280;3044;43.232;27.972;2023-04-16T04:05:50;44586.38;;;-143.84;83.59
6032;BME280;3044;43.232;27.972;2023-04-16T04:08:17;44584.47;;;-143.84;83.47
6032;BME280;3044;43.232;27.972;2023-04-16T04:10:45;44614.94;;;-143.84;83.51
6032;BME280;3044;43.232;27.972;2023-04-16T04:13:13;44712.06;;;-143.84;82.71
6032;BME280;3044;43.232;27.972;2023-04-16T04:15:41;44710.16;;;-143.84;82.84
6032;BME280;3044;43.232;27.972;2023-04-16T04:18:08;44668.25;;;-143.84;82.89
6032;BME280;3044;43.232;27.972;2023-04-16T04:20:38;44658.75;;;-143.84;83.12
6032;BME280;3044;43.232;27.972;2023-04-16T04:23:05;44660.63;;;-143.84;82.97
6032;BME280;3044;43.232;27.972;2023-04-16T04:25:32;44635.88;;;-143.84;83.40
6032;BME280;3044;43.232;27.972;2023-04-16T04:27:59;44660.63;;;-143.84;83.12
6032;BME280;3044;43.232;27.972;2023-04-16T04:30:28;44647.31;;;-143.84;82.84
6032;BME280;3044;43.232;27.972;2023-04-16T04:32:55;44694.91;;;-143.84;82.89
6032;BME280;3044;43.232;27.972;2023-04-16T04:35:22;44694.91;;;-143.84;82.92
6032;BME280;3044;43.232;27.972;2023-04-16T04:37:49;44611.13;;;-143.84;83.00
6032;BME280;3044;43.232;27.972;2023-04-16T04:40:16;44626.38;;;-143.84;83.10
6032;BME280;3044;43.232;27.972;2023-04-16T04:42:43;44664.44;;;-143.84;83.17
6032;BME280;3044;43.232;27.972;2023-04-16T04:45:11;44506.44;;;-143.84;83.79
6032;BME280;3044;43.232;27.972;2023-04-16T04:47:39;44668.25;;;-143.84;83.01
6032;BME280;3044;43.232;27.972;2023-04-16T04:50:07;44811.06;;;-143.84;81.98
6032;BME280;3044;43.232;27.972;2023-04-16T04:52:34;44759.66;;;-143.84;82.40
6032;BME280;3044;43.232;27.972;2023-04-16T04:55:02;44672.06;;;-143.84;82.81
6032;BME280;3044;43.232;27.972;2023-04-16T04:57:29;44858.66;;;-143.84;81.23
6032;BME280;3044;43.232;27.972;2023-04-16T04:59:56;44862.47;;;-143.84;81.35
6032;BME280;3044;43.232;27.972;2023-04-16T05:02:23;44931.00;;;-143.84;79.93
6032;BME280;3044;43.232;27.972;2023-04-16T05:04:51;44870.09;;;-143.84;80.59
6032;BME280;3044;43.232;27.972;2023-04-16T05:07:19;44946.25;;;-143.84;79.77
6032;BME280;3044;43.232;27.972;2023-04-16T05:09:46;44963.38;;;-143.84;78.98
6032;BME280;3044;43.232;27.972;2023-04-16T05:12:13;45041.44;;;-143.84;77.47
6032;BME280;3044;43.232;27.972;2023-04-16T05:14:40;45022.41;;;-143.84;77.17
6032;BME280;3044;43.232;27.972;2023-04-16T05:17:07;45031.94;;;-143.84;77.44
6032;BME280;3044;43.232;27.972;2023-04-16T05:19:35;45035.75;;;-143.84;77.08
6032;BME280;3044;43.232;27.972;2023-04-16T05:22:04;45045.25;;;-143.84;76.87
6032;BME280;3044;43.232;27.972;2023-04-16T05:24:31;45058.59;;;-143.84;76.07
6032;BME280;3044;43.232;27.972;2023-04-16T05:26:58;45073.81;;;-143.84;75.21
6032;BME280;3044;43.232;27.972;2023-04-16T05:29:26;45070.00;;;-143.84;74.82
6032;BME280;3044;43.232;27.972;2023-04-16T05:31:53;45064.31;;;-143.84;74.37
6032;BME280;3044;43.232;27.972;2023-04-16T05:34:20;45066.22;;;-143.84;73.93
6032;BME280;3044;43.232;27.972;2023-04-16T05:36:47;45079.53;;;-143.84;72.79
6032;BME280;3044;43.232;27.972;2023-04-16T05:39:16;45100.47;;;-143.84;69.28
6032;BME280;3044;43.232;27.972;2023-04-16T05:41:44;45100.47;;;-143.84;68.33
6032;BME280;3044;43.232;27.972;2023-04-16T05:44:11;45071.91;;;-143.84;66.81
6032;BME280;3044;43.232;27.972;2023-04-16T05:46:39;45090.97;;;-143.84;66.37
6032;BME280;3044;43.232;27.972;2023-04-16T05:49:06;45052.88;;;-143.84;65.49
6032;BME280;3044;43.232;27.972;2023-04-16T05:51:34;45090.97;;;-143.84;65.88
6032;BME280;3044;43.232;27.972;2023-04-16T05:54:01;45092.88;;;-143.84;66.30
6032;BME280;3044;43.232;27.972;2023-04-16T05:56:29;45075.72;;;-143.84;64.25
6032;BME280;3044;43.232;27.972;2023-04-16T05:58:56;45089.06;;;-143.84;64.82
6032;BME280;3044;43.232;27.972;2023-04-16T06:01:24;45087.16;;;-143.84;64.85
6032;BME280;3044;43.232;27.972;2023-04-16T06:03:51;45083.34;;;-143.84;64.08
6032;BME280;3044;43.232;27.972;2023-04-16T06:06:18;45075.72;;;-143.84;63.19
6032;BME280;3044;43.232;27.972;2023-04-16T06:08:45;45092.88;;;-143.84;62.84
6032;BME280;3044;43.232;27.972;2023-04-16T06:11:12;45092.88;;;-143.84;62.03
6032;BME280;3044;43.232;27.972;2023-04-16T06:13:41;45104.28;;;-143.84;60.69
6032;BME280;3044;43.232;27.972;2023-04-16T06:16:08;45098.56;;;-143.84;60.89
6032;BME280;3044;43.232;27.972;2023-04-16T06:18:35;45090.97;;;-143.84;62.36
6032;BME280;3044;43.232;27.972;2023-04-16T06:21:03;45081.44;;;-143.84;62.98
6032;BME280;3044;43.232;27.972;2023-04-16T06:23:30;45070.00;;;-143.84;60.27
6032;BME280;3044;43.232;27.972;2023-04-16T06:25:57;45092.88;;;-143.84;59.24
6032;BME280;3044;43.232;27.972;2023-04-16T06:28:24;45064.31;;;-143.84;58.91
6032;BME280;3044;43.232;27.972;2023-04-16T06:30:53;45073.81;;;-143.84;59.32
6032;BME280;3044;43.232;27.972;2023-04-16T06:33:20;45073.81;;;-143.84;56.33
6032;BME280;3044;43.232;27.972;2023-04-16T06:35:47;45052.88;;;-143.84;56.71
6032;BME280;3044;43.232;27.972;2023-04-16T06:38:14;45073.81;;;-143.84;54.03
6032;BME280;3044;43.232;27.972;2023-04-16T06:40:41;45056.69;;;-143.84;53.46
6032;BME280;3044;43.232;27.972;2023-04-16T06:43:08;45045.25;;;-143.84;51.30
6032;BME280;3044;43.232;27.972;2023-04-16T06:45:36;45070.00;;;-143.84;48.71
6032;BME280;3044;43.232;27.972;2023-04-16T06:48:04;45062.41;;;-143.84;49.88
6032;BME280;3044;43.232;27.972;2023-04-16T06:50:32;45068.13;;;-143.84;49.00
6032;BME280;3044;43.232;27.972;2023-04-16T06:52:59;45049.06;;;-143.84;48.60
6032;BME280;3044;43.232;27.972;2023-04-16T06:55:26;45041.44;;;-143.84;47.90
6032;BME280;3044;43.232;27.972;2023-04-16T06:57:53;45045.25;;;-143.84;46.58
6032;BME280;3044;43.232;27.972;2023-04-16T07:00:20;45066.22;;;-143.84;46.58
6032;BME280;3044;43.232;27.972;2023-04-16T07:02:48;45049.06;;;-143.84;46.12
6032;BME280;3044;43.232;27.972;2023-04-16T07:05:16;45031.94;;;-143.84;45.99
6032;BME280;3044;43.232;27.972;2023-04-16T07:07:44;45033.84;;;-143.84;45.71
6032;BME280;3044;43.232;27.972;2023-04-16T07:10:11;45047.16;;;-143.84;47.06
6032;BME280;3044;43.232;27.972;2023-04-16T07:12:38;45071.91;;;-143.84;46.37
6032;BME280;3044;43.232;27.972;2023-04-16T07:15:06;45052.88;;;-143.84;46.91
6032;BME280;3044;43.232;27.972;2023-04-16T07:17:34;45050.97;;;-143.84;47.59
6032;BME280;3044;43.232;27.972;2023-04-16T07:20:01;45068.13;;;-143.84;47.79
6032;BME280;3044;43.232;27.972;2023-04-16T07:22:29;45068.13;;;-143.84;48.71
6032;BME280;3044;43.232;27.972;2023-04-16T07:24:56;45050.97;;;-143.84;48.60
6032;BME280;3044;43.232;27.972;2023-04-16T07:27:24;45062.41;;;-143.84;48.14
6032;BME280;3044;43.232;27.972;2023-04-16T07:29:51;45045.25;;;-143.84;47.79
6032;BME280;3044;43.232;27.972;2023-04-16T07:32:20;45056.69;;;-143.84;47.88
6032;BME280;3044;43.232;27.972;2023-04-16T07:34:48;45071.91;;;-143.84;47.70
6032;BME280;3044;43.232;27.972;2023-04-16T07:37:15;45071.91;;;-143.84;48.95
6032;BME280;3044;43.232;27.972;2023-04-16T07:39:43;45071.91;;;-143.84;49.55
6032;BME280;3044;43.232;27.972;2023-04-16T07:42:10;45050.97;;;-143.84;49.30
6032;BME280;3044;43.232;27.972;2023-04-16T07:44:38;45079.53;;;-143.84;48.83
6032;BME280;3044;43.232;27.972;2023-04-16T07:47:05;45043.34;;;-143.84;48.48
6032;BME280;3044;43.232;27.972;2023-04-16T07:49:32;45054.78;;;-143.84;47.31
6032;BME280;3044;43.232;27.972;2023-04-16T07:51:59;45041.44;;;-143.84;47.90
6032;BME280;3044;43.232;27.972;2023-04-16T07:54:27;45062.41;;;-143.84;47.57
6032;BME280;3044;43.232;27.972;2023-04-16T07:56:55;45058.59;;;-143.84;48.08
6032;BME280;3044;43.232;27.972;2023-04-16T07:59:22;45050.97;;;-143.84;48.03
6032;BME280;3044;43.232;27.972;2023-04-16T08:01:51;45047.16;;;-143.84;48.81
6032;BME280;3044;43.232;27.972;2023-04-16T08:04:19;45079.53;;;-143.84;48.39
6032;BME280;3044;43.232;27.972;2023-04-16T08:06:49;45052.88;;;-143.84;47.45
6032;BME280;3044;43.232;27.972;2023-04-16T08:09:17;45066.22;;;-143.84;48.10
6032;BME280;3044;43.232;27.972;2023-04-16T08:11:44;45041.44;;;-143.84;47.71
6032;BME280;3044;43.232;27.972;2023-04-16T08:14:13;45045.25;;;-143.84;47.61
6032;BME280;3044;43.232;27.972;2023-04-16T08:16:40;45039.53;;;-143.84;47.43
6032;BME280;3044;43.232;27.972;2023-04-16T08:19:07;45039.53;;;-143.84;46.50
6032;BME280;3044;43.232;27.972;2023-04-16T08:21:34;45037.66;;;-143.84;47.00
6032;BME280;3044;43.232;27.972;2023-04-16T08:24:01;45054.78;;;-143.84;46.18
6032;BME280;3044;43.232;27.972;2023-04-16T08:26:28;45054.78;;;-143.84;45.72
6032;BME280;3044;43.232;27.972;2023-04-16T08:28:55;45075.72;;;-143.84;45.86
6032;BME280;3044;43.232;27.972;2023-04-16T08:31:24;45045.25;;;-143.84;45.60
6032;BME280;3044;43.232;27.972;2023-04-16T08:33:51;45060.50;;;-143.84;44.64
6032;BME280;3044;43.232;27.972;2023-04-16T08:36:18;45047.16;;;-143.84;44.24
6032;BME280;3044;43.232;27.972;2023-04-16T08:38:45;45049.06;;;-143.84;44.87
6032;BME280;3044;43.232;27.972;2023-04-16T08:41:12;45026.22;;;-143.84;43.59
6032;BME280;3044;43.232;27.972;2023-04-16T08:43:43;45054.78;;;-143.84;42.31
6032;BME280;3044;43.232;27.972;2023-04-16T08:46:11;45026.22;;;-143.84;42.96
6032;BME280;3044;43.232;27.972;2023-04-16T08:48:41;45030.03;;;-143.84;43.53
6032;BME280;3044;43.232;27.972;2023-04-16T08:51:09;45037.66;;;-143.84;42.07
6032;BME280;3044;43.232;27.972;2023-04-16T08:53:42;45045.25;;;-143.84;42.83
6032;BME280;3044;43.232;27.972;2023-04-16T08:56:12;45047.16;;;-143.84;42.80
6032;BME280;3044;43.232;27.972;2023-04-16T08:58:40;45060.50;;;-143.84;41.73
6032;BME280;3044;43.232;27.972;2023-04-16T09:01:08;45026.22;;;-143.84;41.38
6032;BME280;3044;43.232;27.972;2023-04-16T09:03:36;45049.06;;;-143.84;41.27
6032;BME280;3044;43.232;27.972;2023-04-16T09:06:06;45047.16;;;-143.84;41.52
6032;BME280;3044;43.232;27.972;2023-04-16T09:08:33;45037.66;;;-143.84;41.42
6032;BME280;3044;43.232;27.972;2023-04-16T09:11:02;45024.31;;;-143.84;40.70
6032;BME280;3044;43.232;27.972;2023-04-16T09:13:30;45012.88;;;-143.84;39.88
6032;BME280;3044;43.232;27.972;2023-04-16T09:15:58;45018.59;;;-143.84;39.89
6032;BME280;3044;43.232;27.972;2023-04-16T09:18:26;45030.03;;;-143.84;40.37
6032;BME280;3044;43.232;27.972;2023-04-16T09:20:53;45028.13;;;-143.84;40.58
6032;BME280;3044;43.232;27.972;2023-04-16T09:23:23;45026.22;;;-143.84;40.67
6032;BME280;3044;43.232;27.972;2023-04-16T09:25:50;45009.09;;;-143.84;40.51
6032;BME280;3044;43.232;27.972;2023-04-16T09:28:38;45022.41;;;-143.84;40.46
6032;BME280;3044;43.232;27.972;2023-04-16T09:31:10;45003.38;;;-143.84;41.03
6032;BME280;3044;43.232;27.972;2023-04-16T09:33:38;45028.13;;;-143.84;40.88
6032;BME280;3044;43.232;27.972;2023-04-16T09:36:06;45035.75;;;-143.84;41.85
6032;BME280;3044;43.232;27.972;2023-04-16T09:38:49;45037.66;;;-143.84;42.21
6032;BME280;3044;43.232;27.972;2023-04-16T09:41:17;45031.94;;;-143.84;42.84
6032;BME280;3044;43.232;27.972;2023-04-16T09:43:55;45041.44;;;-143.84;42.99
6032;BME280;3044;43.232;27.972;2023-04-16T09:46:23;45052.88;;;-143.84;43.45
6032;BME280;3044;43.232;27.972;2023-04-16T09:48:51;45064.31;;;-143.84;44.36
6032;BME280;3044;43.232;27.972;2023-04-16T09:51:18;45073.81;;;-143.84;43.98
6032;BME280;3044;43.232;27.972;2023-04-16T09:53:45;45056.69;;;-143.84;43.96
6032;BME280;3044;43.232;27.972;2023-04-16T09:56:14;45058.59;;;-143.84;43.75
6032;BME280;3044;43.232;27.972;2023-04-16T09:58:41;45031.94;;;-143.84;43.89
6032;BME280;3044;43.232;27.972;2023-04-16T10:01:09;45047.16;;;-143.84;45.78
6032;BME280;3044;43.232;27.972;2023-04-16T10:03:38;45062.41;;;-143.84;44.89
6032;BME280;3044;43.232;27.972;2023-04-16T10:06:14;45068.13;;;-143.84;44.58
6032;BME280;3044;43.232;27.972;2023-04-16T10:08:43;45035.75;;;-143.84;44.92
6032;BME280;3044;43.232;27.972;2023-04-16T10:11:10;45068.13;;;-143.84;44.17
6032;BME280;3044;43.232;27.972;2023-04-16T10:13:39;45050.97;;;-143.84;44.45
6032;BME280;3044;43.232;27.972;2023-04-16T10:16:07;45054.78;;;-143.84;44.13
6032;BME280;3044;43.232;27.972;2023-04-16T10:18:35;45043.34;;;-143.84;44.81
6032;BME280;3044;43.232;27.972;2023-04-16T10:21:03;45064.31;;;-143.84;44.76
6032;BME280;3044;43.232;27.972;2023-04-16T10:23:31;45056.69;;;-143.84;45.79
6032;BME280;3044;43.232;27.972;2023-04-16T10:26:00;45050.97;;;-143.84;48.46
6032;BME280;3044;43.232;27.972;2023-04-16T10:28:27;45062.41;;;-143.84;48.48
6032;BME280;3044;43.232;27.972;2023-04-16T10:30:57;45052.88;;;-143.84;47.60
6032;BME280;3044;43.232;27.972;2023-04-16T10:33:27;45077.63;;;-143.84;47.75
6032;BME280;3044;43.232;27.972;2023-04-16T10:36:06;45079.53;;;-143.84;47.71
6032;BME280;3044;43.232;27.972;2023-04-16T10:38:34;45049.06;;;-143.84;48.80
6032;BME280;3044;43.232;27.972;2023-04-16T10:41:05;45073.81;;;-143.84;47.92
6032;BME280;3044;43.232;27.972;2023-04-16T10:43:38;45052.88;;;-143.84;49.34
6032;BME280;3044;43.232;27.972;2023-04-16T10:46:21;45071.91;;;-143.84;50.08
6032;BME280;3044;43.232;27.972;2023-04-16T10:48:51;45077.63;;;-143.84;50.01
6032;BME280;3044;43.232;27.972;2023-04-16T10:51:29;45045.25;;;-143.84;50.44
6032;BME280;3044;43.232;27.972;2023-04-16T10:54:01;45090.97;;;-143.84;50.61
6032;BME280;3044;43.232;27.972;2023-04-16T10:56:31;45062.41;;;-143.84;52.95
6032;BME280;3044;43.232;27.972;2023-04-16T10:58:58;45071.91;;;-143.84;52.78
6032;BME280;3044;43.232;27.972;2023-04-16T11:01:30;45089.06;;;-143.84;53.58
6032;BME280;3044;43.232;27.972;2023-04-16T11:03:59;45075.72;;;-143.84;53.42
6032;BME280;3044;43.232;27.972;2023-04-16T11:06:29;45070.00;;;-143.84;53.93
6032;BME280;3044;43.232;27.972;2023-04-16T11:08:56;45075.72;;;-143.84;54.68
6032;BME280;3044;43.232;27.972;2023-04-16T11:11:24;45071.91;;;-143.84;56.03
6032;BME280;3044;43.232;27.972;2023-04-16T11:13:54;45087.16;;;-143.84;58.22
6032;BME280;3044;43.232;27.972;2023-04-16T11:16:23;45073.81;;;-143.84;57.60
6032;BME280;3044;43.232;27.972;2023-04-16T11:18:53;45071.91;;;-143.84;57.78
6032;BME280;3044;43.232;27.972;2023-04-16T11:21:21;45062.41;;;-143.84;58.83
6032;BME280;3044;43.232;27.972;2023-04-16T11:23:50;45104.28;;;-143.84;60.46
6032;BME280;3044;43.232;27.972;2023-04-16T11:26:24;45085.25;;;-143.84;61.10
6032;BME280;3044;43.232;27.972;2023-04-16T11:28:53;45083.34;;;-143.84;61.14
6032;BME280;3044;43.232;27.972;2023-04-16T11:31:20;45083.34;;;-143.84;61.71
6032;BME280;3044;43.232;27.972;2023-04-16T11:33:49;45094.78;;;-143.84;62.34
6032;BME280;3044;43.232;27.972;2023-04-16T11:36:17;45090.97;;;-143.84;63.35
6032;BME280;3044;43.232;27.972;2023-04-16T11:38:46;45096.66;;;-143.84;64.51
6032;BME280;3044;43.232;27.972;2023-04-16T11:41:18;45115.72;;;-143.84;65.85
6032;BME280;3044;43.232;27.972;2023-04-16T11:43:46;45094.78;;;-143.84;65.65
6032;BME280;3044;43.232;27.972;2023-04-16T11:46:13;45071.91;;;-143.84;66.61
6032;BME280;3044;43.232;27.972;2023-04-16T11:48:48;45073.81;;;-143.84;65.84
6032;BME280;3044;43.232;27.972;2023-04-16T11:51:18;45085.25;;;-143.84;64.03
6032;BME280;3044;43.232;27.972;2023-04-16T11:53:48;45110.00;;;-143.84;63.62
6032;BME280;3044;43.232;27.972;2023-04-16T11:56:24;45083.34;;;-143.84;64.95
6032;BME280;3044;43.232;27.972;2023-04-16T11:59:08;45083.34;;;-143.84;64.44
6032;BME280;3044;43.232;27.972;2023-04-16T12:01:36;45100.47;;;-143.84;63.66
6032;BME280;3044;43.232;27.972;2023-04-16T12:04:04;45081.44;;;-143.84;62.12
6032;BME280;3044;43.232;27.972;2023-04-16T12:06:32;45111.91;;;-143.84;61.93
6032;BME280;3044;43.232;27.972;2023-04-16T12:09:20;45073.81;;;-143.84;62.12
6032;BME280;3044;43.232;27.972;2023-04-16T12:11:47;45094.78;;;-143.84;62.17
6032;BME280;3044;43.232;27.972;2023-04-16T12:14:14;45062.41;;;-143.84;62.32
6032;BME280;3044;43.232;27.972;2023-04-16T12:16:41;45075.72;;;-143.84;60.40
6032;BME280;3044;43.232;27.972;2023-04-16T12:19:10;45092.88;;;-143.84;61.89
6032;BME280;3044;43.232;27.972;2023-04-16T12:21:41;45106.19;;;-143.84;62.13
6032;BME280;3044;43.232;27.972;2023-04-16T12:24:10;45083.34;;;-143.84;63.65
6032;BME280;3044;43.232;27.972;2023-04-16T12:26:42;45089.06;;;-143.84;63.56
6032;BME280;3044;43.232;27.972;2023-04-16T12:29:17;45102.38;;;-143.84;63.71
6032;BME280;3044;43.232;27.972;2023-04-16T12:31:45;45077.63;;;-143.84;64.39
6032;BME280;3044;43.232;27.972;2023-04-16T12:34:13;45047.16;;;-143.84;65.03
6032;BME280;3044;43.232;27.972;2023-04-16T12:36:43;45081.44;;;-143.84;65.10
6032;BME280;3044;43.232;27.972;2023-04-16T12:39:11;45089.06;;;-143.84;66.84
6032;BME280;3044;43.232;27.972;2023-04-16T12:41:40;45096.66;;;-143.84;64.78
6032;BME280;3044;43.232;27.972;2023-04-16T12:44:09;45089.06;;;-143.84;64.88
6032;BME280;3044;43.232;27.972;2023-04-16T12:46:38;45104.28;;;-143.84;65.80
6032;BME280;3044;43.232;27.972;2023-04-16T12:49:06;45096.66;;;-143.84;65.66
6032;BME280;3044;43.232;27.972;2023-04-16T12:51:34;45098.56;;;-143.84;66.73
6032;BME280;3044;43.232;27.972;2023-04-16T12:54:04;45077.63;;;-143.84;66.11